createdAt,value
2018-11-02T00:00:29.452Z,5.1
2018-11-02T00:01:36.248Z,5
2018-11-02T00:02:43.230Z,4.9
2018-11-02T00:03:50.430Z,4.9
2018-11-02T00:04:57.636Z,4.8
2018-11-02T00:06:04.925Z,4.8
2018-11-02T00:07:11.577Z,4.7
2018-11-02T00:08:18.229Z,4.6
2018-11-02T00:09:25.199Z,4.6
2018-11-02T00:10:31.850Z,4.6
2018-11-02T00:11:39.077Z,4.5
2018-11-02T00:12:46.313Z,4.5
2018-11-02T00:13:52.689Z,4.5
2018-11-02T00:14:59.906Z,4.5
2018-11-02T00:16:07.109Z,4.5
2018-11-02T00:17:14.034Z,4.4
2018-11-02T00:18:21.236Z,4.3
2018-11-02T00:19:28.458Z,4.3
2018-11-02T00:20:35.664Z,4.3
2018-11-02T00:21:42.869Z,4.4
2018-11-02T00:22:50.066Z,4.3
2018-11-02T00:23:56.993Z,4.3
2018-11-02T00:25:04.194Z,4.2
2018-11-02T00:26:11.393Z,4.2
2018-11-02T00:27:18.609Z,4.2
2018-11-02T00:28:25.527Z,4.1
2018-11-02T00:29:32.471Z,4
2018-11-02T00:30:39.391Z,4
2018-11-02T00:31:46.358Z,4
2018-11-02T00:32:53.029Z,3.9
2018-11-02T00:34:00.230Z,3.9
2018-11-02T00:35:07.440Z,3.9
2018-11-02T00:36:13.827Z,3.9
2018-11-02T00:37:20.749Z,3.9
2018-11-02T00:38:27.678Z,3.9
2018-11-02T00:39:34.899Z,3.9
2018-11-02T00:40:41.820Z,3.8
2018-11-02T00:41:48.745Z,3.8
2018-11-02T00:42:55.393Z,3.8
2018-11-02T00:44:02.512Z,3.9
2018-11-02T00:45:10.226Z,3.9
2018-11-02T00:46:17.159Z,3.9
2018-11-02T00:47:24.368Z,3.9
2018-11-02T00:48:31.567Z,3.9
2018-11-02T00:49:38.217Z,3.9
2018-11-02T00:50:45.415Z,4
2018-11-02T00:51:52.351Z,4.1
2018-11-02T00:52:58.995Z,4.2
2018-11-02T00:54:06.195Z,4.3
2018-11-02T00:55:13.391Z,4.3
2018-11-02T00:56:20.317Z,4.3
2018-11-02T00:57:27.562Z,4.2
2018-11-02T00:58:34.786Z,4.2
2018-11-02T00:59:42.246Z,4.2
2018-11-02T01:00:49.809Z,4.2
2018-11-02T01:01:57.566Z,4.2
2018-11-02T01:03:05.197Z,4.1
2018-11-02T01:04:12.270Z,4.1
2018-11-02T01:05:19.644Z,4
2018-11-02T01:06:27.140Z,4
2018-11-02T01:07:34.401Z,3.9
2018-11-02T01:08:41.315Z,4
2018-11-02T01:09:48.248Z,4
2018-11-02T01:10:55.178Z,4
2018-11-02T01:12:02.107Z,4
2018-11-02T01:13:09.302Z,4
2018-11-02T01:14:15.961Z,3.9
2018-11-02T01:15:22.604Z,3.9
2018-11-02T01:16:29.612Z,3.9
2018-11-02T01:17:36.681Z,3.8
2018-11-02T01:18:43.604Z,3.7
2018-11-02T01:19:50.802Z,3.6
2018-11-02T01:20:57.717Z,3.6
2018-11-02T01:22:04.097Z,3.6
2018-11-02T01:23:11.020Z,3.5
2018-11-02T01:24:18.221Z,3.5
2018-11-02T01:25:25.430Z,3.6
2018-11-02T01:26:31.799Z,3.5
2018-11-02T01:27:38.729Z,3.5
2018-11-02T01:28:45.390Z,3.5
2018-11-02T01:29:52.313Z,3.5
2018-11-02T01:30:59.521Z,3.5
2018-11-02T01:32:06.448Z,3.4
2018-11-02T01:33:13.660Z,3.5
2018-11-02T01:34:20.593Z,3.4
2018-11-02T01:35:27.520Z,3.4
2018-11-02T01:36:34.444Z,3.3
2018-11-02T01:37:41.394Z,3.3
2018-11-02T01:38:48.601Z,3.3
2018-11-02T01:39:55.601Z,3.3
2018-11-02T01:41:02.253Z,3.3
2018-11-02T01:42:09.444Z,3.3
2018-11-02T01:43:16.383Z,3.3
2018-11-02T01:44:23.312Z,3.3
2018-11-02T01:45:29.957Z,3.3
2018-11-02T01:46:37.162Z,3.3
2018-11-02T01:47:44.085Z,3.3
2018-11-02T01:48:51.283Z,3.3
2018-11-02T01:49:58.476Z,3.2
2018-11-02T01:51:05.404Z,3.2
2018-11-02T01:52:12.059Z,3.3
2018-11-02T01:53:18.986Z,3.3
2018-11-02T01:54:26.205Z,3.2
2018-11-02T01:55:32.848Z,3.2
2018-11-02T01:56:40.046Z,3.2
2018-11-02T01:57:46.967Z,3.2
2018-11-02T01:58:53.911Z,3.2
2018-11-02T02:00:00.849Z,3.3
2018-11-02T02:01:07.468Z,3.3
2018-11-02T02:02:14.392Z,3.3
2018-11-02T02:03:20.769Z,3.2
2018-11-02T02:04:27.695Z,3.2
2018-11-02T02:05:34.614Z,3.2
2018-11-02T02:06:41.541Z,3.1
2018-11-02T02:07:48.743Z,3.1
2018-11-02T02:08:55.396Z,3.1
2018-11-02T02:10:02.316Z,3.1
2018-11-02T02:11:09.521Z,3.1
2018-11-02T02:12:16.716Z,3.1
2018-11-02T02:13:24.017Z,3.1
2018-11-02T02:14:31.458Z,3.1
2018-11-02T02:15:38.105Z,3.1
2018-11-02T02:16:45.307Z,3.1
2018-11-02T02:17:52.523Z,3.1
2018-11-02T02:18:59.723Z,3.1
2018-11-02T02:20:06.652Z,3
2018-11-02T02:21:13.299Z,3
2018-11-02T02:22:19.948Z,3
2018-11-02T02:23:26.867Z,3
2018-11-02T02:24:34.064Z,3
2018-11-02T02:25:41.000Z,3
2018-11-02T02:26:48.202Z,2.9
2018-11-02T02:27:55.127Z,2.9
2018-11-02T02:29:02.327Z,3
2018-11-02T02:30:09.247Z,2.9
2018-11-02T02:31:16.450Z,2.9
2018-11-02T02:32:23.096Z,2.9
2018-11-02T02:33:30.295Z,2.9
2018-11-02T02:34:37.215Z,2.9
2018-11-02T02:35:44.186Z,2.9
2018-11-02T02:36:51.109Z,2.9
2018-11-02T02:37:58.032Z,2.9
2018-11-02T02:39:05.228Z,2.8
2018-11-02T02:40:12.428Z,2.9
2018-11-02T02:41:19.631Z,2.8
2018-11-02T02:42:26.558Z,2.8
2018-11-02T02:43:33.478Z,2.8
2018-11-02T02:44:40.687Z,2.8
2018-11-02T02:45:47.887Z,2.7
2018-11-02T02:46:54.814Z,2.7
2018-11-02T02:48:01.736Z,2.7
2018-11-02T02:49:08.663Z,2.7
2018-11-02T02:50:15.306Z,2.7
2018-11-02T02:51:22.365Z,2.7
2018-11-02T02:52:29.319Z,2.7
2018-11-02T02:53:36.524Z,2.7
2018-11-02T02:54:43.456Z,2.7
2018-11-02T02:55:50.115Z,2.6
2018-11-02T02:56:57.040Z,2.6
2018-11-02T02:58:04.236Z,2.7
2018-11-02T02:59:11.164Z,2.7
2018-11-02T03:00:18.360Z,2.6
2018-11-02T03:01:25.555Z,2.6
2018-11-02T03:02:32.486Z,2.6
2018-11-02T03:03:39.148Z,2.6
2018-11-02T03:04:46.341Z,2.6
2018-11-02T03:05:53.544Z,2.6
2018-11-02T03:07:00.747Z,2.5
2018-11-02T03:08:07.671Z,2.5
2018-11-02T03:09:14.868Z,2.5
2018-11-02T03:10:21.422Z,2.5
2018-11-02T03:11:28.857Z,2.6
2018-11-02T03:12:35.780Z,2.6
2018-11-02T03:13:42.972Z,2.5
2018-11-02T03:14:50.172Z,2.4
2018-11-02T03:15:57.093Z,2.4
2018-11-02T03:17:04.286Z,2.4
2018-11-02T03:18:11.615Z,2.4
2018-11-02T03:19:18.916Z,2.5
2018-11-02T03:20:26.153Z,2.6
2018-11-02T03:21:33.346Z,2.6
2018-11-02T03:22:40.459Z,2.6
2018-11-02T03:23:47.978Z,2.5
2018-11-02T03:24:55.173Z,2.5
2018-11-02T03:26:02.420Z,2.5
2018-11-02T03:27:09.611Z,2.5
2018-11-02T03:28:16.689Z,2.4
2018-11-02T03:29:24.656Z,2.4
2018-11-02T03:30:33.065Z,2.4
2018-11-02T03:31:41.117Z,2.4
2018-11-02T03:32:48.507Z,2.4
2018-11-02T03:33:56.122Z,2.4
2018-11-02T03:35:03.056Z,2.4
2018-11-02T03:36:10.250Z,2.4
2018-11-02T03:37:17.172Z,2.4
2018-11-02T03:38:24.369Z,2.4
2018-11-02T03:39:31.566Z,2.3
2018-11-02T03:40:38.766Z,2.4
2018-11-02T03:41:45.690Z,2.4
2018-11-02T03:42:52.617Z,2.3
2018-11-02T03:43:59.548Z,2.3
2018-11-02T03:45:06.743Z,2.3
2018-11-02T03:46:13.677Z,2.3
2018-11-02T03:47:20.316Z,2.3
2018-11-02T03:48:27.183Z,2.3
2018-11-02T03:49:34.108Z,2.2
2018-11-02T03:50:41.828Z,2.2
2018-11-02T03:51:49.053Z,2.2
2018-11-02T03:52:55.475Z,2.2
2018-11-02T03:54:02.583Z,2.2
2018-11-02T03:55:09.512Z,2.2
2018-11-02T03:56:16.437Z,2.2
2018-11-02T03:57:23.635Z,2.2
2018-11-02T03:58:30.829Z,2.2
2018-11-02T03:59:37.753Z,2.2
2018-11-02T04:00:46.332Z,2.2
2018-11-02T04:01:53.272Z,2.1
2018-11-02T04:03:00.194Z,2.1
2018-11-02T04:04:07.121Z,2.1
2018-11-02T04:05:14.323Z,2.1
2018-11-02T04:06:21.265Z,2.1
2018-11-02T04:07:28.456Z,2.1
2018-11-02T04:08:34.827Z,2.1
2018-11-02T04:09:41.812Z,2.1
2018-11-02T04:10:48.964Z,2.1
2018-11-02T04:11:55.891Z,2.1
2018-11-02T04:13:02.260Z,2.1
2018-11-02T04:14:09.528Z,2.1
2018-11-02T04:15:16.176Z,2.1
2018-11-02T04:16:23.381Z,2.1
2018-11-02T04:17:30.585Z,2.1
2018-11-02T04:18:37.513Z,2.1
2018-11-02T04:19:44.436Z,2.1
2018-11-02T04:20:51.356Z,2
2018-11-02T04:21:58.560Z,2.1
2018-11-02T04:23:05.212Z,2.1
2018-11-02T04:24:12.411Z,2.1
2018-11-02T04:25:19.617Z,2
2018-11-02T04:26:26.546Z,2
2018-11-02T04:27:33.468Z,2
2018-11-02T04:28:40.681Z,2
2018-11-02T04:29:47.895Z,2.1
2018-11-02T04:30:55.029Z,2.1
2018-11-02T04:32:02.584Z,2.1
2018-11-02T04:33:09.510Z,2.1
2018-11-02T04:34:16.445Z,2.2
2018-11-02T04:35:23.373Z,2.2
2018-11-02T04:36:30.304Z,2.2
2018-11-02T04:37:37.294Z,2.2
2018-11-02T04:38:44.218Z,2.2
2018-11-02T04:39:51.147Z,2.2
2018-11-02T04:40:58.079Z,2.1
2018-11-02T04:42:04.732Z,2.1
2018-11-02T04:43:11.667Z,2.1
2018-11-02T04:44:18.884Z,2.1
2018-11-02T04:45:26.078Z,2.2
2018-11-02T04:46:33.010Z,2.2
2018-11-02T04:47:39.927Z,2.2
2018-11-02T04:48:46.856Z,2.2
2018-11-02T04:49:53.792Z,2.2
2018-11-02T04:51:01.322Z,2.2
2018-11-02T04:52:08.326Z,2.3
2018-11-02T04:53:15.525Z,2.3
2018-11-02T04:54:22.726Z,2.4
2018-11-02T04:55:29.656Z,2.4
2018-11-02T04:56:36.855Z,2.4
2018-11-02T04:57:44.084Z,2.4
2018-11-02T04:58:51.020Z,2.3
2018-11-02T04:59:58.221Z,2.3
2018-11-02T05:01:05.418Z,2.3
2018-11-02T05:02:12.351Z,2.3
2018-11-02T05:03:19.000Z,2.3
2018-11-02T05:04:26.005Z,2.3
2018-11-02T05:05:33.202Z,2.4
2018-11-02T05:06:40.400Z,2.3
2018-11-02T05:07:47.624Z,2.4
2018-11-02T05:08:54.828Z,2.4
2018-11-02T05:10:02.467Z,2.5
2018-11-02T05:11:09.647Z,2.7
2018-11-02T05:12:16.280Z,2.8
2018-11-02T05:13:23.475Z,2.9
2018-11-02T05:14:30.131Z,2.9
2018-11-02T05:15:36.788Z,3
2018-11-02T05:16:43.709Z,3
2018-11-02T05:17:50.626Z,3.1
2018-11-02T05:18:57.274Z,3.1
2018-11-02T05:20:04.194Z,2.9
2018-11-02T05:21:11.468Z,2.9
2018-11-02T05:22:18.910Z,2.8
2018-11-02T05:23:25.839Z,2.8
2018-11-02T05:24:32.761Z,2.8
2018-11-02T05:25:39.966Z,3
2018-11-02T05:26:47.158Z,3.1
2018-11-02T05:27:54.362Z,3.1
2018-11-02T05:29:01.559Z,3.2
2018-11-02T05:30:08.751Z,3.2
2018-11-02T05:31:15.675Z,3.2
2018-11-02T05:32:22.601Z,3.1
2018-11-02T05:33:29.537Z,3
2018-11-02T05:34:36.734Z,3
2018-11-02T05:35:43.658Z,2.9
2018-11-02T05:36:50.317Z,2.9
2018-11-02T05:37:57.238Z,2.8
2018-11-02T05:39:04.166Z,2.8
2018-11-02T05:40:11.435Z,2.7
2018-11-02T05:41:18.350Z,2.7
2018-11-02T05:42:25.547Z,2.7
2018-11-02T05:43:32.750Z,2.6
2018-11-02T05:44:39.672Z,2.6
2018-11-02T05:45:47.237Z,2.6
2018-11-02T05:46:54.512Z,2.5
2018-11-02T05:48:02.232Z,2.5
2018-11-02T05:49:09.935Z,2.5
2018-11-02T05:50:17.951Z,2.5
2018-11-02T05:51:25.116Z,2.5
2018-11-02T05:52:32.312Z,2.5
2018-11-02T05:53:39.238Z,2.4
2018-11-02T05:54:46.210Z,2.4
2018-11-02T05:55:52.257Z,2.4
2018-11-02T05:56:58.899Z,2.4
2018-11-02T05:58:05.849Z,2.4
2018-11-02T05:59:13.053Z,2.4
2018-11-02T06:00:19.992Z,2.4
2018-11-02T06:01:26.985Z,2.4
2018-11-02T06:02:34.123Z,2.3
2018-11-02T06:03:41.075Z,2.3
2018-11-02T06:04:47.997Z,2.3
2018-11-02T06:05:54.921Z,2.3
2018-11-02T06:07:01.849Z,2.3
2018-11-02T06:08:09.055Z,2.3
2018-11-02T06:09:15.984Z,2.3
2018-11-02T06:10:22.920Z,2.3
2018-11-02T06:11:30.118Z,2.4
2018-11-02T06:12:37.323Z,2.4
2018-11-02T06:13:44.524Z,2.4
2018-11-02T06:14:51.177Z,2.4
2018-11-02T06:15:57.851Z,2.3
2018-11-02T06:17:05.107Z,2.3
2018-11-02T06:18:12.322Z,2.4
2018-11-02T06:19:19.523Z,2.3
2018-11-02T06:20:26.456Z,2.4
2018-11-02T06:21:33.376Z,2.3
2018-11-02T06:22:40.296Z,2.3
2018-11-02T06:23:47.511Z,2.3
2018-11-02T06:24:54.427Z,2.4
2018-11-02T06:26:01.361Z,2.4
2018-11-02T06:27:08.286Z,2.3
2018-11-02T06:28:15.541Z,2.4
2018-11-02T06:29:22.469Z,2.4
2018-11-02T06:30:29.500Z,2.4
2018-11-02T06:31:36.758Z,2.4
2018-11-02T06:32:44.057Z,2.4
2018-11-02T06:33:51.585Z,2.5
2018-11-02T06:34:58.253Z,2.5
2018-11-02T06:36:05.179Z,2.4
2018-11-02T06:37:12.379Z,2.4
2018-11-02T06:38:19.580Z,2.4
2018-11-02T06:39:26.510Z,2.4
2018-11-02T06:40:33.448Z,2.4
2018-11-02T06:41:40.441Z,2.4
2018-11-02T06:42:47.647Z,2.4
2018-11-02T06:43:54.578Z,2.5
2018-11-02T06:45:01.768Z,2.5
2018-11-02T06:46:09.460Z,2.4
2018-11-02T06:47:16.695Z,2.4
2018-11-02T06:48:23.892Z,2.4
2018-11-02T06:49:31.110Z,2.4
2018-11-02T06:50:38.129Z,2.4
2018-11-02T06:51:45.074Z,2.4
2018-11-02T06:52:52.378Z,2.5
2018-11-02T06:53:59.308Z,2.5
2018-11-02T06:55:06.232Z,2.6
2018-11-02T06:56:12.873Z,2.6
2018-11-02T06:57:20.076Z,2.7
2018-11-02T06:58:27.008Z,2.7
2018-11-02T06:59:34.618Z,2.7
2018-11-02T07:00:42.431Z,2.6
2018-11-02T07:01:49.372Z,2.6
2018-11-02T07:02:56.567Z,2.6
2018-11-02T07:04:03.771Z,2.7
2018-11-02T07:05:10.688Z,2.7
2018-11-02T07:06:17.913Z,2.6
2018-11-02T07:07:25.562Z,2.7
2018-11-02T07:08:33.808Z,2.7
2018-11-02T07:09:40.914Z,2.7
2018-11-02T07:10:47.835Z,2.8
2018-11-02T07:11:55.049Z,2.9
2018-11-02T07:13:02.246Z,2.9
2018-11-02T07:14:09.187Z,3
2018-11-02T07:15:16.128Z,3
2018-11-02T07:16:23.335Z,3
2018-11-02T07:17:30.256Z,3
2018-11-02T07:18:36.905Z,2.9
2018-11-02T07:19:43.832Z,3
2018-11-02T07:20:50.519Z,3
2018-11-02T07:21:57.748Z,2.9
2018-11-02T07:23:04.950Z,2.9
2018-11-02T07:24:11.879Z,3
2018-11-02T07:25:19.418Z,3
2018-11-02T07:26:26.735Z,3
2018-11-02T07:27:33.696Z,3.1
2018-11-02T07:28:40.885Z,3.2
2018-11-02T07:29:47.807Z,3.3
2018-11-02T07:30:55.005Z,3.3
2018-11-02T07:32:02.205Z,3.2
2018-11-02T07:33:09.402Z,3.2
2018-11-02T07:34:16.096Z,3.2
2018-11-02T07:35:23.517Z,3.2
2018-11-02T07:36:30.502Z,3.2
2018-11-02T07:37:37.683Z,3.3
2018-11-02T07:38:45.384Z,3.4
2018-11-02T07:39:52.450Z,3.5
2018-11-02T07:41:00.133Z,3.5
2018-11-02T07:42:07.574Z,3.6
2018-11-02T07:43:14.525Z,3.8
2018-11-02T07:44:21.790Z,4
2018-11-02T07:45:28.987Z,4
2018-11-02T07:46:35.910Z,4.1
2018-11-02T07:47:42.892Z,4
2018-11-02T07:48:50.036Z,3.9
2018-11-02T07:49:56.694Z,3.9
2018-11-02T07:51:03.893Z,3.8
2018-11-02T07:52:11.113Z,3.8
2018-11-02T07:53:17.770Z,3.7
2018-11-02T07:54:24.991Z,3.7
2018-11-02T07:55:32.236Z,3.7
2018-11-02T07:56:39.446Z,3.7
2018-11-02T07:57:46.705Z,3.7
2018-11-02T07:58:53.938Z,3.8
2018-11-02T08:00:01.143Z,4
2018-11-02T08:01:08.340Z,4.1
2018-11-02T08:02:15.577Z,4.2
2018-11-02T08:03:22.506Z,4.4
2018-11-02T08:04:29.439Z,4.5
2018-11-02T08:05:36.396Z,4.6
2018-11-02T08:06:43.329Z,4.7
2018-11-02T08:07:50.255Z,4.9
2018-11-02T08:08:57.388Z,5.1
2018-11-02T08:10:04.046Z,5.3
2018-11-02T08:11:11.001Z,5.5
2018-11-02T08:12:18.197Z,5.5
2018-11-02T08:13:25.395Z,5.7
2018-11-02T08:14:32.592Z,5.9
2018-11-02T08:15:39.790Z,6.1
2018-11-02T08:16:47.193Z,6.2
2018-11-02T08:17:54.397Z,6.4
2018-11-02T08:19:01.625Z,6.5
2018-11-02T08:20:09.122Z,6.6
2018-11-02T08:21:16.319Z,6.6
2018-11-02T08:22:23.528Z,6.6
2018-11-02T08:23:30.452Z,6.7
2018-11-02T08:24:37.699Z,6.8
2018-11-02T08:25:45.222Z,6.9
2018-11-02T08:26:52.427Z,6.9
2018-11-02T08:27:59.350Z,6.9
2018-11-02T08:29:06.274Z,6.9
2018-11-02T08:30:13.475Z,7.1
2018-11-02T08:31:20.402Z,7.3
2018-11-02T08:32:27.066Z,7.3
2018-11-02T08:33:33.999Z,7.4
2018-11-02T08:34:40.923Z,7.4
2018-11-02T08:35:48.128Z,7.4
2018-11-02T08:36:55.331Z,7.4
2018-11-02T08:38:02.531Z,7.5
2018-11-02T08:39:09.462Z,7.5
2018-11-02T08:40:16.665Z,7.5
2018-11-02T08:41:23.313Z,7.6
2018-11-02T08:42:30.238Z,7.7
2018-11-02T08:43:36.893Z,7.8
2018-11-02T08:44:43.817Z,8
2018-11-02T08:45:51.050Z,8.1
2018-11-02T08:46:58.263Z,8.2
2018-11-02T08:48:04.901Z,8.3
2018-11-02T08:49:12.100Z,8.2
2018-11-02T08:50:18.777Z,8.2
2018-11-02T08:51:26.013Z,8.2
2018-11-02T08:52:32.667Z,8.2
2018-11-02T08:53:39.870Z,8.2
2018-11-02T08:54:47.076Z,8.2
2018-11-02T08:55:53.729Z,8.3
2018-11-02T08:57:00.929Z,8.3
2018-11-02T08:58:08.708Z,8.3
2018-11-02T08:59:17.017Z,8.2
2018-11-02T09:00:24.655Z,8.2
2018-11-02T09:01:31.865Z,8.2
2018-11-02T09:02:39.069Z,8.3
2018-11-02T09:03:45.722Z,8.4
2018-11-02T09:04:52.979Z,8.5
2018-11-02T09:06:00.252Z,8.7
2018-11-02T09:07:07.181Z,8.7
2018-11-02T09:08:14.412Z,8.8
2018-11-02T09:09:21.340Z,8.8
2018-11-02T09:10:28.544Z,8.7
2018-11-02T09:11:35.193Z,8.6
2018-11-02T09:12:42.401Z,8.5
2018-11-02T09:14:03.977Z,8.4
2018-11-02T09:15:11.177Z,8.3
2018-11-02T09:16:18.388Z,8.3
2018-11-02T09:17:25.318Z,8.4
2018-11-02T09:18:32.751Z,8.5
2018-11-02T09:19:40.090Z,8.6
2018-11-02T09:20:47.289Z,8.7
2018-11-02T09:21:54.543Z,8.9
2018-11-02T09:23:01.739Z,9
2018-11-02T09:24:08.124Z,9.1
2018-11-02T09:25:15.047Z,9.2
2018-11-02T09:26:21.698Z,9.2
2018-11-02T09:27:28.633Z,9.2
2018-11-02T09:28:35.763Z,9.3
2018-11-02T09:29:42.989Z,9.3
2018-11-02T09:30:49.359Z,9.4
2018-11-02T09:31:56.565Z,9.5
2018-11-02T09:33:03.819Z,9.4
2018-11-02T09:34:10.748Z,9.5
2018-11-02T09:35:17.953Z,9.6
2018-11-02T09:36:24.932Z,9.8
2018-11-02T09:37:32.133Z,9.9
2018-11-02T09:38:39.344Z,10
2018-11-02T09:39:46.546Z,10.1
2018-11-02T09:40:53.745Z,10.1
2018-11-02T09:42:00.686Z,10.1
2018-11-02T09:43:07.610Z,10.1
2018-11-02T09:44:14.809Z,10
2018-11-02T09:45:21.946Z,10
2018-11-02T09:46:28.885Z,10
2018-11-02T09:47:36.104Z,10
2018-11-02T09:48:42.782Z,10.1
2018-11-02T09:49:49.430Z,10.2
2018-11-02T09:50:56.142Z,10.3
2018-11-02T09:52:03.223Z,10.4
2018-11-02T09:53:11.548Z,10.6
2018-11-02T09:54:19.870Z,10.6
2018-11-02T09:55:27.794Z,10.7
2018-11-02T09:56:35.016Z,10.7
2018-11-02T09:57:42.298Z,10.8
2018-11-02T09:58:49.494Z,10.8
2018-11-02T09:59:56.696Z,10.8
2018-11-02T10:01:04.409Z,10.9
2018-11-02T10:02:12.028Z,10.9
2018-11-02T10:03:19.154Z,11
2018-11-02T10:04:25.809Z,11
2018-11-02T10:05:33.038Z,11
2018-11-02T10:06:40.253Z,11.1
2018-11-02T10:07:47.459Z,11.3
2018-11-02T10:08:54.665Z,11.4
2018-11-02T10:10:01.971Z,11.3
2018-11-02T10:11:08.881Z,11.3
2018-11-02T10:12:16.092Z,11.3
2018-11-02T10:13:23.339Z,11.4
2018-11-02T10:14:30.553Z,11.4
2018-11-02T10:15:37.765Z,11.4
2018-11-02T10:16:44.968Z,11.5
2018-11-02T10:17:52.238Z,11.5
2018-11-02T10:18:59.170Z,11.4
2018-11-02T10:20:06.378Z,11.4
2018-11-02T10:21:13.312Z,11.5
2018-11-02T10:22:20.523Z,11.6
2018-11-02T10:23:27.462Z,11.7
2018-11-02T10:24:34.403Z,11.7
2018-11-02T10:25:41.608Z,11.8
2018-11-02T10:26:48.555Z,12
2018-11-02T10:27:55.551Z,12
2018-11-02T10:29:02.617Z,12.1
2018-11-02T10:30:09.835Z,12.1
2018-11-02T10:31:16.771Z,12
2018-11-02T10:32:23.971Z,12
2018-11-02T10:33:30.911Z,11.9
2018-11-02T10:34:38.122Z,11.8
2018-11-02T10:35:45.500Z,11.9
2018-11-02T10:36:52.914Z,12
2018-11-02T10:38:00.137Z,12
2018-11-02T10:39:07.068Z,12
2018-11-02T10:40:13.722Z,12
2018-11-02T10:41:20.929Z,12.1
2018-11-02T10:42:27.860Z,12.1
2018-11-02T10:43:34.790Z,12.2
2018-11-02T10:44:42.067Z,12.2
2018-11-02T10:45:49.366Z,12.3
2018-11-02T10:46:56.306Z,12.1
2018-11-02T10:48:03.237Z,12
2018-11-02T10:49:10.265Z,11.9
2018-11-02T10:50:17.400Z,12
2018-11-02T10:51:23.786Z,12.1
2018-11-02T10:52:30.454Z,12.3
2018-11-02T10:53:37.384Z,12.4
2018-11-02T10:54:44.632Z,12.5
2018-11-02T10:55:52.055Z,12.6
2018-11-02T10:56:58.992Z,12.6
2018-11-02T10:58:05.926Z,12.7
2018-11-02T10:59:13.142Z,12.8
2018-11-02T11:00:20.352Z,13
2018-11-02T11:01:27.423Z,13
2018-11-02T11:02:35.015Z,12.9
2018-11-02T11:03:41.980Z,12.9
2018-11-02T11:04:49.196Z,12.8
2018-11-02T11:05:56.142Z,12.7
2018-11-02T11:07:03.080Z,12.8
2018-11-02T11:08:10.045Z,12.7
2018-11-02T11:09:16.983Z,12.7
2018-11-02T11:10:24.195Z,12.9
2018-11-02T11:11:30.932Z,12.9
2018-11-02T11:12:39.019Z,13
2018-11-02T11:13:48.196Z,12.9
2018-11-02T11:14:56.239Z,12.9
2018-11-02T11:16:03.450Z,13
2018-11-02T11:17:10.649Z,13.1
2018-11-02T11:18:17.584Z,13.3
2018-11-02T11:19:24.509Z,13.5
2018-11-02T11:20:31.442Z,13.5
2018-11-02T11:21:38.378Z,13.4
2018-11-02T11:22:45.585Z,13.4
2018-11-02T11:23:52.520Z,13.3
2018-11-02T11:24:59.732Z,13.3
2018-11-02T11:26:06.663Z,13.5
2018-11-02T11:27:13.867Z,13.7
2018-11-02T11:28:20.794Z,13.7
2018-11-02T11:29:28.212Z,13.8
2018-11-02T11:30:35.783Z,13.9
2018-11-02T11:31:42.717Z,13.8
2018-11-02T11:32:49.377Z,13.7
2018-11-02T11:33:56.309Z,13.8
2018-11-02T11:35:03.512Z,13.9
2018-11-02T11:36:10.198Z,13.8
2018-11-02T11:37:17.441Z,13.9
2018-11-02T11:38:24.099Z,14
2018-11-02T11:39:31.456Z,14.2
2018-11-02T11:40:38.836Z,14.4
2018-11-02T11:41:45.231Z,14.2
2018-11-02T11:42:52.187Z,14.1
2018-11-02T11:43:59.407Z,14.1
2018-11-02T11:45:05.790Z,14
2018-11-02T11:46:13.023Z,14.1
2018-11-02T11:47:19.688Z,14.1
2018-11-02T11:48:27.131Z,14
2018-11-02T11:49:34.631Z,14.2
2018-11-02T11:50:41.581Z,14.4
2018-11-02T11:51:48.517Z,14.5
2018-11-02T11:52:55.464Z,14.6
2018-11-02T11:54:02.677Z,14.8
2018-11-02T11:55:10.012Z,14.9
2018-11-02T11:56:17.223Z,14.9
2018-11-02T11:57:23.884Z,14.7
2018-11-02T11:58:30.822Z,14.7
2018-11-02T11:59:37.482Z,14.9
2018-11-02T12:00:44.143Z,15
2018-11-02T12:01:50.796Z,15.1
2018-11-02T12:02:58.029Z,15.1
2018-11-02T12:04:05.236Z,14.8
2018-11-02T12:05:12.539Z,14.8
2018-11-02T12:06:19.483Z,14.8
2018-11-02T12:07:26.202Z,14.8
2018-11-02T12:08:33.570Z,14.9
2018-11-02T12:09:40.501Z,15.1
2018-11-02T12:10:47.470Z,15.2
2018-11-02T12:11:54.702Z,15.4
2018-11-02T12:13:01.635Z,15.3
2018-11-02T12:14:08.583Z,15.4
2018-11-02T12:15:15.799Z,15.5
2018-11-02T12:16:23.023Z,15.6
2018-11-02T12:17:30.230Z,15.5
2018-11-02T12:18:37.454Z,15.6
2018-11-02T12:19:44.380Z,15.6
2018-11-02T12:20:51.039Z,15.7
2018-11-02T12:21:58.479Z,15.7
2018-11-02T12:23:05.312Z,15.8
2018-11-02T12:24:12.529Z,15.8
2018-11-02T12:25:19.792Z,15.9
2018-11-02T12:26:27.007Z,15.7
2018-11-02T12:27:34.209Z,15.4
2018-11-02T12:28:41.591Z,15.1
2018-11-02T12:29:48.682Z,14.8
2018-11-02T12:30:55.890Z,14.7
2018-11-02T12:32:02.537Z,14.7
2018-11-02T12:33:09.744Z,14.9
2018-11-02T12:34:16.964Z,15.2
2018-11-02T12:35:24.175Z,15.6
2018-11-02T12:36:32.364Z,15.8
2018-11-02T12:37:40.108Z,16
2018-11-02T12:38:48.384Z,15.9
2018-11-02T12:39:56.045Z,15.6
2018-11-02T12:41:03.022Z,15.6
2018-11-02T12:42:09.958Z,15.6
2018-11-02T12:43:17.136Z,15.7
2018-11-02T12:44:24.787Z,15.9
2018-11-02T12:45:32.002Z,16
2018-11-02T12:46:39.243Z,16
2018-11-02T12:47:46.687Z,16.1
2018-11-02T12:48:54.888Z,16
2018-11-02T12:50:03.321Z,15.9
2018-11-02T12:51:10.876Z,15.9
2018-11-02T12:52:17.539Z,15.8
2018-11-02T12:53:24.745Z,15.6
2018-11-02T12:54:31.683Z,15.5
2018-11-02T12:55:38.334Z,15.4
2018-11-02T12:56:45.543Z,15.3
2018-11-02T12:57:52.757Z,15.1
2018-11-02T12:58:59.980Z,14.9
2018-11-02T13:00:07.197Z,14.8
2018-11-02T13:01:14.143Z,14.8
2018-11-02T13:02:21.078Z,15
2018-11-02T13:03:28.286Z,15.2
2018-11-02T13:04:35.501Z,15.4
2018-11-02T13:05:42.445Z,15.4
2018-11-02T13:06:49.655Z,15.2
2018-11-02T13:07:56.606Z,15.2
2018-11-02T13:09:04.057Z,15.2
2018-11-02T13:10:11.282Z,15.2
2018-11-02T13:11:18.500Z,15.3
2018-11-02T13:12:25.437Z,15.3
2018-11-02T13:13:32.412Z,15.4
2018-11-02T13:14:39.630Z,15.7
2018-11-02T13:15:47.103Z,15.9
2018-11-02T13:16:54.329Z,15.9
2018-11-02T13:18:01.675Z,15.7
2018-11-02T13:19:08.939Z,15.6
2018-11-02T13:20:16.111Z,15.6
2018-11-02T13:21:23.154Z,15.6
2018-11-02T13:22:30.089Z,15.6
2018-11-02T13:23:37.303Z,15.6
2018-11-02T13:24:44.341Z,15.6
2018-11-02T13:25:51.307Z,15.6
2018-11-02T13:26:58.538Z,15.7
2018-11-02T13:28:05.204Z,15.9
2018-11-02T13:29:12.438Z,15.9
2018-11-02T13:30:19.326Z,16
2018-11-02T13:31:27.556Z,16.1
2018-11-02T13:32:35.003Z,16.1
2018-11-02T13:33:41.932Z,16
2018-11-02T13:34:49.140Z,16
2018-11-02T13:35:56.349Z,16
2018-11-02T13:37:03.203Z,16
2018-11-02T13:38:10.783Z,16
2018-11-02T13:39:17.735Z,16
2018-11-02T13:40:24.680Z,16.1
2018-11-02T13:41:31.883Z,16.3
2018-11-02T13:42:38.822Z,16.5
2018-11-02T13:43:46.259Z,16.6
2018-11-02T13:44:53.948Z,16.8
2018-11-02T13:46:00.619Z,17
2018-11-02T13:47:07.576Z,17.1
2018-11-02T13:48:14.509Z,17.2
2018-11-02T13:49:21.449Z,17.2
2018-11-02T13:50:28.622Z,17
2018-11-02T13:51:35.815Z,16.8
2018-11-02T13:52:42.485Z,16.5
2018-11-02T13:53:49.158Z,16.1
2018-11-02T13:54:56.374Z,15.9
2018-11-02T13:56:03.596Z,15.7
2018-11-02T13:57:10.551Z,15.6
2018-11-02T13:58:17.495Z,15.4
2018-11-02T13:59:24.791Z,15.3
2018-11-02T14:00:31.792Z,15.2
2018-11-02T14:01:38.187Z,15.2
2018-11-02T14:02:45.131Z,15.2
2018-11-02T14:03:52.066Z,15.2
2018-11-02T14:04:59.284Z,15.2
2018-11-02T14:06:06.242Z,15.2
2018-11-02T14:07:12.634Z,15.2
2018-11-02T14:08:19.569Z,15.2
2018-11-02T14:09:26.793Z,15.1
2018-11-02T14:10:33.726Z,15.1
2018-11-02T14:11:40.655Z,15.2
2018-11-02T14:12:48.241Z,15.3
2018-11-02T14:13:55.405Z,15.2
2018-11-02T14:15:02.063Z,15.3
2018-11-02T14:16:08.991Z,15.4
2018-11-02T14:17:16.203Z,15.4
2018-11-02T14:18:22.976Z,15.3
2018-11-02T14:19:30.208Z,15.2
2018-11-02T14:20:36.881Z,15.1
2018-11-02T14:21:44.098Z,15
2018-11-02T14:22:51.307Z,15
2018-11-02T14:23:58.526Z,14.9
2018-11-02T14:25:05.735Z,14.7
2018-11-02T14:26:12.947Z,14.5
2018-11-02T14:27:19.907Z,14.4
2018-11-02T14:28:27.120Z,14.2
2018-11-02T14:29:34.594Z,14.2
2018-11-02T14:30:41.828Z,14.3
2018-11-02T14:31:49.045Z,14.4
2018-11-02T14:32:55.992Z,14.4
2018-11-02T14:34:03.210Z,14.4
2018-11-02T14:35:10.445Z,14.7
2018-11-02T14:36:17.657Z,14.9
2018-11-02T14:37:25.313Z,15
2018-11-02T14:38:33.527Z,15.1
2018-11-02T14:39:41.798Z,15.1
2018-11-02T14:40:49.904Z,15.1
2018-11-02T14:41:57.456Z,15.2
2018-11-02T14:43:04.674Z,15.3
2018-11-02T14:44:11.661Z,15.3
2018-11-02T14:45:18.604Z,15.4
2018-11-02T14:46:25.104Z,15.3
2018-11-02T14:47:32.480Z,15.2
2018-11-02T14:48:39.414Z,15
2018-11-02T14:49:46.085Z,15
2018-11-02T14:50:53.295Z,14.9
2018-11-02T14:52:00.238Z,14.9
2018-11-02T14:53:07.181Z,14.8
2018-11-02T14:54:14.398Z,14.7
2018-11-02T14:55:21.074Z,14.7
2018-11-02T14:56:28.038Z,14.6
2018-11-02T14:57:35.240Z,14.4
2018-11-02T14:58:42.020Z,14.3
2018-11-02T14:59:49.412Z,14.2
2018-11-02T15:00:56.652Z,14.1
2018-11-02T15:02:03.585Z,14.1
2018-11-02T15:03:10.531Z,14.1
2018-11-02T15:04:17.746Z,14.1
2018-11-02T15:05:24.962Z,14.1
2018-11-02T15:06:31.919Z,14
2018-11-02T15:07:39.147Z,14
2018-11-02T15:08:45.809Z,13.9
2018-11-02T15:09:53.028Z,13.8
2018-11-02T15:10:59.138Z,13.8
2018-11-02T15:12:06.353Z,13.7
2018-11-02T15:13:13.282Z,13.7
2018-11-02T15:14:20.488Z,13.6
2018-11-02T15:15:27.706Z,13.6
2018-11-02T15:16:34.638Z,13.6
2018-11-02T15:17:41.849Z,13.5
2018-11-02T15:18:48.528Z,13.5